createdAt,value
2023-01-22T00:02:22.072Z,1.70
2023-01-22T00:04:49.138Z,1.80
2023-01-22T00:07:18.717Z,1.80
2023-01-22T00:09:46.427Z,1.90
2023-01-22T00:12:13.397Z,1.90
2023-01-22T00:14:43.557Z,1.80
2023-01-22T00:17:11.099Z,1.90
2023-01-22T00:19:38.570Z,1.80
2023-01-22T00:22:08.109Z,1.80
2023-01-22T00:24:35.327Z,1.80
2023-01-22T00:27:03.849Z,1.80
2023-01-22T00:29:33.123Z,1.90
2023-01-22T00:32:06.177Z,1.70
2023-01-22T00:34:35.979Z,1.60
2023-01-22T00:37:03.336Z,1.70
2023-01-22T00:39:35.748Z,1.80
2023-01-22T00:42:02.829Z,1.80
2023-01-22T00:44:31.315Z,1.60
2023-01-22T00:46:58.666Z,1.60
2023-01-22T00:49:26.868Z,1.60
2023-01-22T00:51:56.484Z,1.50
2023-01-22T00:54:23.885Z,1.50
2023-01-22T00:56:51.330Z,1.50
2023-01-22T00:59:18.815Z,1.60
2023-01-22T01:04:27.931Z,1.70
2023-01-22T01:06:56.575Z,1.70
2023-01-22T01:09:24.649Z,1.60
2023-01-22T01:11:53.324Z,1.60
2023-01-22T01:14:21.752Z,1.80
2023-01-22T01:16:51.006Z,1.50
2023-01-22T01:19:18.318Z,1.50
2023-01-22T01:21:45.746Z,1.50
2023-01-22T01:24:13.939Z,1.40
2023-01-22T01:26:45.442Z,1.50
2023-01-22T01:29:12.410Z,1.50
2023-01-22T01:31:39.910Z,1.50
2023-01-22T01:34:08.849Z,1.50
2023-01-22T01:36:49.236Z,1.60
2023-01-22T01:39:18.335Z,1.70
2023-01-22T01:41:45.604Z,1.60
2023-01-22T01:44:21.419Z,1.50
2023-01-22T01:46:55.481Z,1.60
2023-01-22T01:49:46.597Z,1.50
2023-01-22T01:52:15.671Z,1.50
2023-01-22T01:54:50.907Z,1.60
2023-01-22T01:57:27.354Z,1.60
2023-01-22T01:59:57.059Z,1.50
2023-01-22T02:02:25.957Z,1.50
2023-01-22T02:04:53.897Z,1.50
2023-01-22T02:07:25.268Z,1.60
2023-01-22T02:09:52.196Z,1.50
2023-01-22T02:12:21.035Z,1.50
2023-01-22T02:14:50.906Z,1.50
2023-01-22T02:17:22.959Z,1.40
2023-01-22T02:19:49.960Z,1.40
2023-01-22T02:22:28.246Z,1.30
2023-01-22T02:24:58.783Z,1.30
2023-01-22T02:27:25.796Z,1.40
2023-01-22T02:29:55.206Z,1.40
2023-01-22T02:32:22.581Z,1.50
2023-01-22T02:34:49.786Z,1.40
2023-01-22T02:37:17.338Z,1.40
2023-01-22T02:39:44.877Z,1.40
2023-01-22T02:42:14.632Z,1.50
2023-01-22T02:44:43.446Z,1.60
2023-01-22T02:47:17.135Z,1.80
2023-01-22T02:49:44.351Z,1.70
2023-01-22T02:52:11.293Z,1.80
2023-01-22T02:54:38.817Z,1.80
2023-01-22T02:57:05.959Z,1.90
2023-01-22T02:59:33.232Z,1.80
2023-01-22T03:02:00.273Z,1.80
2023-01-22T03:04:30.963Z,1.90
2023-01-22T03:06:58.020Z,1.70
2023-01-22T03:09:28.905Z,1.70
2023-01-22T03:11:56.839Z,1.70
2023-01-22T03:14:42.235Z,1.70
2023-01-22T03:17:32.365Z,1.70
2023-01-22T03:20:20.564Z,1.60
2023-01-22T03:22:48.715Z,1.70
2023-01-22T03:25:17.340Z,1.70
2023-01-22T03:28:04.865Z,1.70
2023-01-22T03:30:31.804Z,1.80
2023-01-22T03:32:59.947Z,1.80
2023-01-22T03:35:31.073Z,1.80
2023-01-22T03:37:58.331Z,1.90
2023-01-22T03:40:25.809Z,2.10
2023-01-22T03:42:53.919Z,1.90
2023-01-22T03:45:23.919Z,1.90
2023-01-22T03:47:53.312Z,1.80
2023-01-22T03:50:20.395Z,2.40
2023-01-22T03:52:48.109Z,1.80
2023-01-22T03:55:18.662Z,1.70
2023-01-22T03:57:46.399Z,1.70
2023-01-22T04:00:14.773Z,1.80
2023-01-22T04:02:41.794Z,1.80
2023-01-22T04:05:11.904Z,1.90
2023-01-22T04:07:41.011Z,1.90
2023-01-22T04:10:09.300Z,1.90
2023-01-22T04:12:38.673Z,1.90
2023-01-22T04:15:07.999Z,1.80
2023-01-22T04:17:35.512Z,1.70
2023-01-22T04:20:03.785Z,1.80
2023-01-22T04:22:30.778Z,1.80
2023-01-22T04:24:57.902Z,1.70
2023-01-22T04:27:24.893Z,1.80
2023-01-22T04:29:51.946Z,1.80
2023-01-22T04:32:20.604Z,1.80
2023-01-22T04:34:48.757Z,1.80
2023-01-22T04:37:17.914Z,1.90
2023-01-22T04:39:47.410Z,2.00
2023-01-22T04:42:15.130Z,2.10
2023-01-22T04:44:42.127Z,2.00
2023-01-22T04:47:11.111Z,1.90
2023-01-22T04:49:41.514Z,2.00
2023-01-22T04:52:09.382Z,2.00
2023-01-22T04:54:36.315Z,1.90
2023-01-22T04:57:04.148Z,1.80
2023-01-22T04:59:31.386Z,1.80
2023-01-22T05:01:58.774Z,1.80
2023-01-22T05:07:09.608Z,1.80
2023-01-22T05:09:36.535Z,1.80
2023-01-22T05:12:08.287Z,1.90
2023-01-22T05:14:37.057Z,1.90
2023-01-22T05:17:03.977Z,1.90
2023-01-22T05:19:33.787Z,1.90
2023-01-22T05:22:01.352Z,1.90
2023-01-22T05:24:29.303Z,1.80
2023-01-22T05:26:56.920Z,1.90
2023-01-22T05:29:27.344Z,1.90
2023-01-22T05:31:56.403Z,1.80
2023-01-22T05:34:24.781Z,1.70
2023-01-22T05:36:52.938Z,1.80
2023-01-22T05:39:22.435Z,1.80
2023-01-22T05:41:51.411Z,1.80
2023-01-22T05:44:18.581Z,1.90
2023-01-22T05:46:45.958Z,1.80
2023-01-22T05:49:15.332Z,1.80
2023-01-22T05:51:42.285Z,1.70
2023-01-22T05:54:10.420Z,1.80
2023-01-22T05:56:37.945Z,1.80
2023-01-22T05:59:05.693Z,1.70
2023-01-22T06:01:34.652Z,1.70
2023-01-22T06:04:01.653Z,1.60
2023-01-22T06:06:31.481Z,1.80
2023-01-22T06:08:59.966Z,1.90
2023-01-22T06:11:27.805Z,1.80
2023-01-22T06:13:57.503Z,1.90
2023-01-22T06:16:25.688Z,1.80
2023-01-22T06:18:52.932Z,1.60
2023-01-22T06:21:22.856Z,1.90
2023-01-22T06:23:50.403Z,1.80
2023-01-22T06:26:17.304Z,1.90
2023-01-22T06:28:47.955Z,2.00
2023-01-22T06:31:15.397Z,2.20
2023-01-22T06:33:42.644Z,2.20
2023-01-22T06:36:09.836Z,2.00
2023-01-22T06:38:42.101Z,2.10
2023-01-22T06:41:10.070Z,2.20
2023-01-22T06:43:38.416Z,2.00
2023-01-22T06:46:05.718Z,2.00
2023-01-22T06:48:34.050Z,2.00
2023-01-22T06:51:05.309Z,2.30
2023-01-22T06:53:32.244Z,2.50
2023-01-22T06:56:00.586Z,2.30
2023-01-22T06:58:33.197Z,2.30
2023-01-22T07:01:03.739Z,2.10
2023-01-22T07:03:35.653Z,2.20
2023-01-22T07:06:05.532Z,2.20
2023-01-22T07:08:34.252Z,2.10
2023-01-22T07:11:05.161Z,2.20
2023-01-22T07:13:33.443Z,2.20
2023-01-22T07:16:04.990Z,2.10
2023-01-22T07:18:34.195Z,2.10
2023-01-22T07:21:02.451Z,1.90
2023-01-22T07:23:30.745Z,1.90
2023-01-22T07:25:58.360Z,1.90
2023-01-22T07:28:27.063Z,1.90
2023-01-22T07:30:54.933Z,1.90
2023-01-22T07:33:22.554Z,2.00
2023-01-22T07:35:57.209Z,2.10
2023-01-22T07:38:26.671Z,2.10
2023-01-22T07:40:57.325Z,2.10
2023-01-22T07:43:24.322Z,2.00
2023-01-22T07:45:51.412Z,2.00
2023-01-22T07:48:18.331Z,2.10
2023-01-22T07:50:45.271Z,2.30
2023-01-22T07:53:14.140Z,2.30
2023-01-22T07:55:41.736Z,2.30
2023-01-22T07:58:10.321Z,2.30
2023-01-22T08:00:51.383Z,2.40
2023-01-22T08:03:19.462Z,2.60
2023-01-22T08:05:47.104Z,2.40
2023-01-22T08:08:18.004Z,2.40
2023-01-22T08:10:45.465Z,2.30
2023-01-22T08:13:12.655Z,2.30
2023-01-22T08:15:39.589Z,2.30
2023-01-22T08:18:08.858Z,2.20
2023-01-22T08:20:35.826Z,2.20
2023-01-22T08:23:02.836Z,2.20
2023-01-22T08:25:30.615Z,2.20
2023-01-22T08:28:02.941Z,2.30
2023-01-22T08:30:45.208Z,2.30
2023-01-22T08:33:16.103Z,2.30
2023-01-22T08:35:46.051Z,2.30
2023-01-22T08:38:14.023Z,2.40
2023-01-22T08:40:43.773Z,2.30
2023-01-22T08:43:13.240Z,2.30
2023-01-22T08:45:40.561Z,2.30
2023-01-22T08:48:08.099Z,2.10
2023-01-22T08:50:40.169Z,2.20
2023-01-22T08:56:11.280Z,2.20
2023-01-22T08:58:38.971Z,2.20
2023-01-22T09:04:00.061Z,2.20
2023-01-22T09:06:30.269Z,2.10
2023-01-22T09:08:59.874Z,2.20
2023-01-22T09:11:34.330Z,2.20
2023-01-22T09:14:01.249Z,2.10
2023-01-22T09:16:31.083Z,2.00
2023-01-22T09:19:01.800Z,2.00
2023-01-22T09:21:29.241Z,2.00
2023-01-22T09:23:56.423Z,2.10
2023-01-22T09:26:24.902Z,2.00
2023-01-22T09:28:52.719Z,2.20
2023-01-22T09:31:19.848Z,2.00
2023-01-22T09:36:28.298Z,2.20
2023-01-22T09:39:02.081Z,2.40
2023-01-22T09:41:40.922Z,2.40
2023-01-22T09:44:28.928Z,2.50
2023-01-22T09:47:09.631Z,2.30
2023-01-22T09:49:48.742Z,2.30
2023-01-22T09:52:16.396Z,2.30
2023-01-22T09:54:47.485Z,2.30
2023-01-22T09:57:31.198Z,2.20
2023-01-22T10:00:01.480Z,2.30
2023-01-22T10:03:06.776Z,2.30
2023-01-22T10:05:44.650Z,2.20
2023-01-22T10:08:26.166Z,2.10
2023-01-22T10:10:54.061Z,2.30
2023-01-22T10:13:52.088Z,2.30
2023-01-22T10:16:20.633Z,2.30
2023-01-22T10:19:11.718Z,2.30
2023-01-22T10:21:51.001Z,2.20
2023-01-22T10:24:17.951Z,2.40
2023-01-22T10:26:50.559Z,2.40
2023-01-22T10:29:34.840Z,2.70
2023-01-22T10:32:25.071Z,2.80
2023-01-22T10:35:03.990Z,2.80
2023-01-22T10:37:45.159Z,2.80
2023-01-22T10:40:41.185Z,2.90
2023-01-22T10:43:15.287Z,3.00
2023-01-22T10:45:53.954Z,3.00
2023-01-22T10:48:22.353Z,3.00
2023-01-22T10:51:11.681Z,2.70
2023-01-22T10:53:48.141Z,2.70
2023-01-22T10:56:39.249Z,2.70
2023-01-22T10:59:23.838Z,2.60
2023-01-22T11:02:03.836Z,2.60
2023-01-22T11:04:33.767Z,2.50
2023-01-22T11:07:07.390Z,2.60
2023-01-22T11:10:10.964Z,2.50
2023-01-22T11:12:51.184Z,2.40
2023-01-22T11:15:47.023Z,2.30
2023-01-22T11:18:23.999Z,2.20
2023-01-22T11:20:58.422Z,2.40
2023-01-22T11:23:45.036Z,2.50
2023-01-22T11:26:31.873Z,2.30
2023-01-22T11:29:04.420Z,2.40
2023-01-22T11:32:09.144Z,2.40
2023-01-22T11:34:45.123Z,2.20
2023-01-22T11:37:22.727Z,2.20
2023-01-22T11:40:05.461Z,2.00
2023-01-22T11:43:06.950Z,2.00
2023-01-22T11:46:07.406Z,2.00
2023-01-22T11:48:49.488Z,2.10
2023-01-22T11:51:31.654Z,2.20
2023-01-22T11:54:19.141Z,2.10
2023-01-22T11:57:08.703Z,2.10
2023-01-22T12:00:08.762Z,2.00
2023-01-22T12:02:38.580Z,2.00
2023-01-22T12:05:18.014Z,2.20
2023-01-22T12:08:03.049Z,2.20
2023-01-22T12:10:33.286Z,2.40
2023-01-22T12:13:34.828Z,2.20
2023-01-22T12:16:22.613Z,2.20
2023-01-22T12:19:14.463Z,2.30
2023-01-22T12:21:47.953Z,2.30
2023-01-22T12:24:24.854Z,2.40
2023-01-22T12:27:03.413Z,2.40
2023-01-22T12:29:48.214Z,2.30
2023-01-22T12:32:22.036Z,2.40
2023-01-22T12:35:07.572Z,2.40
2023-01-22T12:37:49.416Z,2.60
2023-01-22T12:40:28.581Z,2.70
2023-01-22T12:43:04.370Z,2.50
2023-01-22T12:45:45.471Z,2.50
2023-01-22T12:48:25.576Z,2.30
2023-01-22T12:50:55.632Z,2.40
2023-01-22T12:53:38.288Z,2.40
2023-01-22T12:56:09.666Z,2.40
2023-01-22T12:58:39.991Z,2.50
2023-01-22T13:01:12.694Z,2.50
2023-01-22T13:03:43.617Z,2.50
2023-01-22T13:06:22.892Z,2.60
2023-01-22T13:08:49.794Z,2.60
2023-01-22T13:11:49.636Z,2.60
2023-01-22T13:14:27.861Z,2.50
2023-01-22T13:17:03.828Z,2.30
2023-01-22T13:19:36.683Z,2.30
2023-01-22T13:22:04.261Z,2.40
2023-01-22T13:24:31.625Z,2.60
2023-01-22T13:27:03.416Z,2.60
2023-01-22T13:29:35.521Z,2.60
2023-01-22T13:32:08.049Z,2.60
2023-01-22T13:34:36.488Z,2.70
2023-01-22T13:37:03.904Z,2.70
2023-01-22T13:39:35.938Z,2.70
2023-01-22T13:42:12.341Z,2.80
2023-01-22T13:44:58.763Z,2.80
2023-01-22T13:47:38.014Z,2.70
2023-01-22T13:50:08.216Z,2.80
2023-01-22T13:52:36.088Z,2.80
2023-01-22T13:55:24.563Z,2.80
2023-01-22T13:58:00.109Z,2.80
2023-01-22T14:00:40.463Z,2.70
2023-01-22T14:03:23.551Z,2.70
2023-01-22T14:05:51.270Z,2.60
2023-01-22T14:08:20.454Z,2.60
2023-01-22T14:10:57.264Z,2.60
2023-01-22T14:13:24.745Z,2.50
2023-01-22T14:15:58.589Z,2.50
2023-01-22T14:18:31.378Z,2.50
2023-01-22T14:20:59.299Z,2.50
2023-01-22T14:23:27.061Z,2.50
2023-01-22T14:25:56.014Z,2.50
2023-01-22T14:28:26.555Z,2.50
2023-01-22T14:30:55.347Z,2.50
2023-01-22T14:33:37.493Z,2.40
2023-01-22T14:36:05.850Z,2.30
2023-01-22T14:38:34.896Z,2.40
2023-01-22T14:43:50.621Z,2.40
2023-01-22T14:49:17.846Z,2.50
2023-01-22T14:52:07.210Z,2.50
2023-01-22T14:54:46.687Z,2.40
2023-01-22T14:57:16.266Z,2.40
2023-01-22T14:59:47.828Z,2.40
2023-01-22T15:05:18.611Z,2.40
2023-01-22T15:14:29.166Z,2.30
2023-01-22T15:19:50.383Z,2.00
2023-01-22T15:22:22.669Z,2.20
2023-01-22T15:24:52.697Z,2.30
2023-01-22T15:27:39.412Z,2.20
2023-01-22T15:30:10.010Z,2.10
2023-01-22T15:32:44.367Z,2.20
2023-01-22T15:35:12.017Z,2.10
2023-01-22T15:37:48.941Z,2.20
2023-01-22T15:40:19.634Z,2.20
2023-01-22T15:42:49.514Z,2.20
2023-01-22T15:45:16.558Z,2.30
2023-01-22T15:47:43.732Z,2.30
2023-01-22T15:50:26.388Z,2.40
2023-01-22T15:53:02.542Z,2.20
2023-01-22T15:55:35.966Z,2.30
2023-01-22T15:58:07.105Z,2.20
2023-01-22T16:00:37.520Z,2.30
2023-01-22T16:03:06.267Z,2.20
2023-01-22T16:05:34.271Z,2.20
2023-01-22T16:08:02.219Z,2.10
2023-01-22T16:10:34.070Z,2.30
2023-01-22T16:13:04.764Z,2.20
2023-01-22T16:15:32.353Z,2.10
2023-01-22T16:18:07.058Z,2.00
2023-01-22T16:20:35.480Z,2.00
2023-01-22T16:23:02.786Z,2.00
2023-01-22T16:25:30.478Z,2.00
2023-01-22T16:27:58.240Z,2.00
2023-01-22T16:30:27.826Z,1.90
2023-01-22T16:32:59.383Z,1.90
2023-01-22T16:35:29.366Z,2.00
2023-01-22T16:38:02.349Z,2.00
2023-01-22T16:40:32.801Z,2.20
2023-01-22T16:43:03.955Z,2.00
2023-01-22T16:45:34.010Z,2.00
2023-01-22T16:48:04.432Z,1.80
2023-01-22T16:50:35.037Z,1.80
2023-01-22T16:53:38.050Z,1.80
2023-01-22T16:56:15.852Z,1.80
2023-01-22T16:58:43.700Z,1.70
2023-01-22T17:01:18.926Z,1.70
2023-01-22T17:03:47.236Z,1.70
2023-01-22T17:06:29.969Z,1.60
2023-01-22T17:09:04.906Z,1.60
2023-01-22T17:11:34.079Z,1.50
2023-01-22T17:14:02.719Z,1.50
2023-01-22T17:16:29.907Z,1.50
2023-01-22T17:19:00.496Z,1.60
2023-01-22T17:21:30.072Z,1.60
2023-01-22T17:24:04.187Z,1.60
2023-01-22T17:29:16.256Z,1.40
2023-01-22T17:32:32.283Z,1.50
2023-01-22T17:35:05.806Z,1.50
2023-01-22T17:37:32.757Z,1.60
2023-01-22T17:43:00.108Z,1.60
2023-01-22T17:45:29.889Z,1.60
2023-01-22T17:48:02.008Z,1.60
2023-01-22T17:50:29.065Z,1.60
2023-01-22T17:53:07.270Z,1.60
2023-01-22T17:55:35.129Z,1.70
2023-01-22T17:58:08.521Z,1.70
2023-01-22T18:00:39.980Z,1.70
2023-01-22T18:03:09.097Z,1.60
2023-01-22T18:05:43.138Z,1.60
2023-01-22T18:08:16.123Z,1.70
2023-01-22T18:10:45.248Z,1.70
2023-01-22T18:13:17.694Z,1.70
2023-01-22T18:15:51.693Z,1.70
2023-01-22T18:18:26.242Z,1.70
2023-01-22T18:20:55.664Z,1.70
2023-01-22T18:23:25.921Z,1.70
2023-01-22T18:25:58.504Z,1.70
2023-01-22T18:28:33.527Z,1.70
2023-01-22T18:31:20.930Z,1.70
2023-01-22T18:33:51.069Z,1.70
2023-01-22T18:36:22.291Z,1.80
2023-01-22T18:38:52.971Z,1.70
2023-01-22T18:41:24.987Z,1.90
2023-01-22T18:44:01.476Z,1.80
2023-01-22T18:46:41.875Z,1.90
2023-01-22T18:49:17.202Z,1.90
2023-01-22T18:51:50.086Z,1.90
2023-01-22T18:54:17.689Z,1.90
2023-01-22T18:56:51.841Z,2.00
2023-01-22T18:59:21.191Z,2.00
2023-01-22T19:01:52.757Z,1.90
2023-01-22T19:04:22.533Z,1.90
2023-01-22T19:06:54.999Z,1.90
2023-01-22T19:09:22.129Z,1.90
2023-01-22T19:11:59.014Z,2.00
2023-01-22T19:14:28.041Z,1.90
2023-01-22T19:16:56.448Z,1.90
2023-01-22T19:19:29.391Z,1.90
2023-01-22T19:22:04.849Z,1.90
2023-01-22T19:24:35.502Z,1.90
2023-01-22T19:27:08.693Z,1.90
2023-01-22T19:29:38.986Z,1.90
2023-01-22T19:32:07.028Z,2.00
2023-01-22T19:34:34.353Z,2.00
2023-01-22T19:37:05.650Z,2.00
2023-01-22T19:39:37.000Z,2.00
2023-01-22T19:42:10.647Z,1.90
2023-01-22T19:44:47.365Z,2.00
2023-01-22T19:47:23.281Z,1.90
2023-01-22T19:52:38.234Z,2.00
2023-01-22T19:55:16.136Z,2.00
2023-01-22T19:57:52.613Z,2.00
2023-01-22T20:00:20.889Z,2.00
2023-01-22T20:02:51.199Z,2.00
2023-01-22T20:08:15.387Z,2.10
2023-01-22T20:10:50.992Z,2.10
2023-01-22T20:22:00.962Z,2.20
2023-01-22T20:27:11.586Z,2.20
2023-01-22T20:29:48.544Z,2.10
2023-01-22T20:35:03.080Z,2.20
2023-01-22T20:43:42.198Z,2.10
2023-01-22T20:49:52.104Z,2.20
2023-01-22T20:52:21.647Z,2.10
2023-01-22T20:55:01.415Z,2.10
2023-01-22T20:57:33.765Z,2.20
2023-01-22T21:00:06.295Z,2.10
2023-01-22T21:02:33.393Z,2.10
2023-01-22T21:05:02.559Z,2.30
2023-01-22T21:07:30.627Z,2.10
2023-01-22T21:10:11.521Z,2.10
2023-01-22T21:12:49.939Z,2.20
2023-01-22T21:15:17.220Z,2.20
2023-01-22T21:20:44.949Z,2.10
2023-01-22T21:23:12.796Z,2.00
2023-01-22T21:25:44.996Z,2.10
2023-01-22T21:28:12.239Z,2.10
2023-01-22T21:30:43.164Z,2.00
2023-01-22T21:33:17.586Z,2.00
2023-01-22T21:35:50.844Z,2.10
2023-01-22T21:38:18.173Z,2.00
2023-01-22T21:40:46.368Z,2.00
2023-01-22T21:43:34.971Z,2.10
2023-01-22T21:49:22.961Z,2.00
2023-01-22T21:51:58.922Z,2.00
2023-01-22T21:54:34.473Z,2.00
2023-01-22T21:57:06.761Z,2.00
2023-01-22T21:59:35.553Z,1.90
2023-01-22T22:02:29.353Z,2.00
2023-01-22T22:05:00.102Z,2.00
2023-01-22T22:07:30.992Z,2.10
2023-01-22T22:10:00.158Z,2.10
2023-01-22T22:12:50.043Z,2.10
2023-01-22T22:15:22.866Z,2.00
2023-01-22T22:17:51.121Z,2.00
2023-01-22T22:20:20.607Z,2.10
2023-01-22T22:22:50.789Z,2.10
2023-01-22T22:25:26.164Z,2.10
2023-01-22T22:27:55.457Z,2.20
2023-01-22T22:30:24.889Z,2.20
2023-01-22T22:33:00.644Z,2.20
2023-01-22T22:35:27.916Z,2.20
2023-01-22T22:37:56.908Z,2.10
2023-01-22T22:40:32.057Z,2.00
2023-01-22T22:43:08.863Z,2.10
2023-01-22T22:45:45.720Z,2.10
2023-01-22T22:48:25.242Z,2.10
2023-01-22T22:50:52.591Z,2.10
2023-01-22T22:53:21.268Z,2.10
2023-01-22T22:55:50.016Z,2.20
2023-01-22T22:58:19.413Z,2.30
2023-01-22T23:00:50.151Z,2.20
2023-01-22T23:03:17.071Z,2.20
2023-01-22T23:05:51.617Z,2.20
2023-01-22T23:08:20.242Z,2.20
2023-01-22T23:10:49.782Z,2.20
2023-01-22T23:13:23.722Z,2.30
2023-01-22T23:15:50.679Z,2.30
2023-01-22T23:18:18.420Z,2.20
2023-01-22T23:20:52.560Z,2.20
2023-01-22T23:23:20.371Z,2.20
2023-01-22T23:25:47.697Z,2.10
2023-01-22T23:28:24.041Z,2.00
2023-01-22T23:30:51.148Z,2.10
2023-01-22T23:33:25.082Z,2.10
2023-01-22T23:35:56.987Z,2.20
2023-01-22T23:38:26.875Z,2.30
2023-01-22T23:41:02.077Z,2.10
2023-01-22T23:43:31.967Z,2.10
2023-01-22T23:46:00.028Z,2.10
2023-01-22T23:48:31.215Z,2.10
2023-01-22T23:51:02.853Z,2.10
2023-01-22T23:53:32.032Z,2.20
2023-01-22T23:56:02.459Z,2.10
2023-01-22T23:58:31.459Z,2.10
